Time;durP1;ratioP1;P1;durP2;ratioP2;P2;SDS_P1;SDS_P2;PMS_P1;PMS_P2;Temp;Humidity;BMP_temperature;BMP_pressure;BME280_temperature;BME280_humidity;BME280_pressure;Samples;Min_cycle;Max_cycle;Signal;HPM_P1;HPM_P2
2021/08/04 00:08:16;;;;;;;;;;;16.90;95.80;;;16.60;85.91;100255.19;4992927;28;19964;-87
2021/08/04 00:10:44;;;;;;;;;;;16.90;95.90;;;16.60;85.91;100253.28;4993280;28;19930;-87
2021/08/04 00:13:11;;;;;;;;;;;16.90;95.70;;;16.61;85.77;100254.13;4975544;28;20381;-87
2021/08/04 00:15:38;;;;;;;;;;;16.90;95.60;;;16.63;86.01;100254.72;4993031;28;19981;-87
2021/08/04 00:18:06;;;;;;;;;;;16.90;95.80;;;16.65;86.07;100260.84;4992429;28;20013;-87
2021/08/04 00:20:33;;;;;;;;;;;16.90;96.00;;;16.64;86.37;100258.31;4992927;28;19929;-87
2021/08/04 00:23:01;;;;;;;;;;;16.90;96.10;;;16.63;86.77;100253.91;4975235;28;20035;-87
2021/08/04 00:25:30;;;;;;;;;;;17.00;96.20;;;16.61;86.45;100252.22;4993204;28;20002;-87
2021/08/04 00:27:57;;;;;;;;;;;17.00;96.10;;;16.63;86.52;100253.91;4992165;28;20452;-87
2021/08/04 00:30:24;;;;;;;;;;;17.00;96.00;;;16.64;86.56;100256.44;4992908;28;20016;-87
2021/08/04 00:32:54;;;;;;;;;;;17.00;96.10;;;16.62;86.68;100253.06;4975120;28;19961;-87
2021/08/04 00:35:21;;;;;;;;;;;17.00;96.10;;;16.65;86.86;100260.84;4974897;28;20390;-87
2021/08/04 00:37:49;;;;;;;;;;;17.00;96.20;;;16.65;86.88;100251.75;4991907;28;19925;-87
2021/08/04 00:40:17;;;;;;;;;;;17.00;96.30;;;16.63;86.93;100246.50;4992562;28;20385;-87
2021/08/04 00:42:46;;;;;;;;;;;17.00;96.40;;;16.67;87.04;100250.44;4975023;28;19961;-87
2021/08/04 00:45:13;;;;;;;;;;;17.00;96.40;;;16.64;87.14;100239.06;4992551;28;19925;-87
2021/08/04 00:47:41;;;;;;;;;;;17.00;96.40;;;16.64;87.04;100244.56;4974043;28;19932;-87
2021/08/04 00:50:09;;;;;;;;;;;17.00;96.30;;;16.65;86.83;100249.00;4992502;28;19925;-87
2021/08/04 00:52:36;;;;;;;;;;;17.00;96.10;;;16.65;86.71;100254.50;4974611;28;19929;-87
2021/08/04 00:55:04;;;;;;;;;;;17.00;95.90;;;16.65;87.01;100249.84;4992274;28;20298;-87
2021/08/04 00:57:31;;;;;;;;;;;17.00;96.10;;;16.66;87.10;100248.78;4991356;28;19926;-87
2021/08/04 01:00:00;;;;;;;;;;;17.00;96.30;;;16.63;86.97;100249.25;4974757;28;19925;-87
2021/08/04 01:02:32;;;;;;;;;;;17.00;96.20;;;16.64;86.94;100241.81;4974419;28;20314;-87
2021/08/04 01:05:03;;;;;;;;;;;17.00;96.20;;;16.66;87.02;100251.53;4974710;28;20409;-87
2021/08/04 01:07:33;;;;;;;;;;;17.00;96.20;;;16.66;86.95;100248.78;4991266;28;19973;-87
2021/08/04 01:10:09;;;;;;;;;;;17.00;96.20;;;16.66;87.04;100242.44;4974493;28;19926;-88
2021/08/04 01:12:41;;;;;;;;;;;17.00;96.30;;;16.63;87.08;100246.50;4992096;28;19926;-87
2021/08/04 01:15:11;;;;;;;;;;;17.00;96.30;;;16.62;86.98;100242.09;4974494;28;19929;-87
2021/08/04 01:17:40;;;;;;;;;;;17.00;96.30;;;16.61;87.14;100243.13;4973560;28;19970;-87
2021/08/04 01:20:12;;;;;;;;;;;17.00;96.20;;;16.60;86.97;100256.03;4974537;28;20024;-87
2021/08/04 01:22:51;;;;;;;;;;;16.90;96.30;;;16.62;86.97;100253.06;4974259;28;19921;-87
2021/08/04 01:25:20;;;;;;;;;;;16.90;96.50;;;16.63;87.11;100254.72;4974148;28;19926;-87
2021/08/04 01:27:51;;;;;;;;;;;16.90;96.60;;;16.62;87.13;100247.56;4973372;28;19933;-87
2021/08/04 01:30:19;;;;;;;;;;;16.90;96.50;;;16.62;86.84;100250.31;4991659;28;19976;-87
2021/08/04 01:32:47;;;;;;;;;;;16.90;96.50;;;16.60;87.01;100252.44;4974228;28;20008;-87
2021/08/04 01:35:15;;;;;;;;;;;16.90;96.50;;;16.59;86.90;100243.38;4973855;28;19926;-87
2021/08/04 01:37:42;;;;;;;;;;;16.90;96.60;;;16.62;86.89;100247.56;4990765;28;19929;-87
2021/08/04 01:40:12;;;;;;;;;;;16.90;96.50;;;16.58;86.94;100246.34;4975606;28;19925;-87
2021/08/04 01:42:39;;;;;;;;;;;16.80;96.40;;;16.59;86.80;100248.84;4973783;28;20031;-87
2021/08/04 01:45:09;;;;;;;;;;;16.80;96.40;;;16.57;86.61;100248.25;4973889;28;19926;-87
2021/08/04 01:47:37;;;;;;;;;;;16.80;96.50;;;16.58;86.70;100246.34;4973251;28;19926;-87
2021/08/04 01:50:06;;;;;;;;;;;16.80;96.50;;;16.57;86.75;100250.16;4973805;28;20461;-87
2021/08/04 01:52:33;;;;;;;;;;;16.80;96.40;;;16.54;86.54;100247.88;4973788;28;19921;-87
2021/08/04 01:55:01;;;;;;;;;;;16.70;96.50;;;16.51;86.64;100249.19;4973503;28;20395;-87
2021/08/04 01:57:29;;;;;;;;;;;16.70;96.50;;;16.51;86.30;100251.09;4973023;28;19932;-87
2021/08/04 01:59:56;;;;;;;;;;;16.70;96.50;;;16.51;86.51;100245.59;4972834;28;19925;-87
2021/08/04 02:02:24;;;;;;;;;;;16.70;96.60;;;16.51;86.14;100245.59;4991043;28;19968;-87
2021/08/04 02:04:52;;;;;;;;;;;16.70;96.50;;;16.51;86.39;100240.09;4973302;28;19925;-87
2021/08/04 02:07:27;;;;;;;;;;;16.60;96.40;;;16.49;86.15;100243.09;4972638;28;20135;-87
2021/08/04 02:09:58;;;;;;;;;;;16.60;96.50;;;16.48;86.03;100240.56;4973391;28;19922;-87
2021/08/04 02:12:26;;;;;;;;;;;16.60;96.50;;;16.47;86.18;100234.25;4973290;28;19925;-87
2021/08/04 02:14:57;;;;;;;;;;;16.60;96.60;;;16.47;86.05;100238.88;4987482;23;19929;-88
2021/08/04 02:17:33;;;;;;;;;;;16.60;96.70;;;16.47;86.09;100245.22;4972514;28;19948;-87
2021/08/04 02:20:04;;;;;;;;;;;16.50;96.60;;;16.46;85.92;100234.47;4990844;28;20378;-87
2021/08/04 02:22:35;;;;;;;;;;;16.50;96.40;;;16.45;85.89;100230.03;4973182;28;20468;-88
2021/08/04 02:25:05;;;;;;;;;;;16.50;96.40;;;16.42;85.61;100240.41;4990729;28;20291;-87
2021/08/04 02:27:34;;;;;;;;;;;16.50;96.40;;;16.40;85.76;100233.47;4972363;28;19937;-87
2021/08/04 02:30:02;;;;;;;;;;;16.50;96.50;;;16.39;85.59;100231.78;4990489;28;20021;-87
2021/08/04 02:32:30;;;;;;;;;;;16.40;96.40;;;16.35;85.38;100233.31;4990400;28;20081;-87
2021/08/04 02:34:58;;;;;;;;;;;16.40;96.30;;;16.35;85.45;100238.81;4990286;28;20405;-87
2021/08/04 02:37:25;;;;;;;;;;;16.40;96.20;;;16.36;85.38;100240.50;4971908;28;20011;-86
2021/08/04 02:39:52;;;;;;;;;;;16.40;96.10;;;16.35;85.12;100231.41;4972796;28;19926;-86
2021/08/04 02:42:20;;;;;;;;;;;16.40;96.20;;;16.34;84.95;100229.72;4972769;28;19957;-88
2021/08/04 02:44:47;;;;;;;;;;;16.30;96.20;;;16.32;85.00;100228.28;4990321;28;20290;-87
2021/08/04 02:47:14;;;;;;;;;;;16.20;96.00;;;16.29;84.88;100226.00;4971908;28;19972;-87
2021/08/04 02:49:43;;;;;;;;;;;16.20;96.00;;;16.28;84.70;100222.44;4972944;28;19925;-87
2021/08/04 02:52:11;;;;;;;;;;;16.20;95.90;;;16.26;84.23;100226.44;4990268;28;19930;-88
2021/08/04 02:54:38;;;;;;;;;;;16.10;95.80;;;16.23;84.33;100227.75;4990409;28;19925;-87
2021/08/04 02:57:07;;;;;;;;;;;16.10;95.90;;;16.20;84.15;100223.56;4989503;28;19926;-87
2021/08/04 02:59:34;;;;;;;;;;;16.00;95.90;;;16.16;84.14;100221.50;4990185;28;19932;-87
2021/08/04 03:02:01;;;;;;;;;;;16.00;95.80;;;16.15;84.04;100219.84;4972522;28;19957;-86
2021/08/04 03:04:28;;;;;;;;;;;16.00;95.80;;;16.12;83.90;100228.50;4989941;28;19932;-87
2021/08/04 03:06:57;;;;;;;;;;;16.00;95.90;;;16.10;83.95;100222.41;4971702;28;19931;-87
2021/08/04 03:09:24;;;;;;;;;;;15.90;96.00;;;16.09;83.68;100228.97;4972418;28;19926;-87
2021/08/04 03:11:51;;;;;;;;;;;15.90;96.00;;;16.06;83.58;100226.69;4989877;28;19980;-87
2021/08/04 03:14:18;;;;;;;;;;;15.90;96.10;;;16.03;83.54;100223.34;4972897;28;19961;-87
2021/08/04 03:16:45;;;;;;;;;;;15.80;96.00;;;16.05;83.45;100219.50;4989031;28;20020;-86
2021/08/04 03:19:13;;;;;;;;;;;15.80;95.90;;;16.02;83.35;100226.31;4988441;28;19972;-88
2021/08/04 03:21:41;;;;;;;;;;;15.80;96.00;;;15.99;83.50;100222.13;4989909;28;20424;-87
2021/08/04 03:24:09;;;;;;;;;;;15.80;96.20;;;15.97;83.26;100226.13;4988613;28;19964;-87
2021/08/04 03:26:36;;;;;;;;;;;15.70;96.20;;;15.96;83.37;100230.78;4987780;28;20577;-86
2021/08/04 03:29:04;;;;;;;;;;;15.70;96.20;;;15.93;83.38;100233.16;4990014;28;19976;-87
2021/08/04 03:31:31;;;;;;;;;;;15.70;96.20;;;15.89;83.31;100232.75;4989811;28;19930;-87
2021/08/04 03:33:58;;;;;;;;;;;15.70;95.80;;;15.89;83.17;100240.16;4989737;28;19967;-87
2021/08/04 03:36:25;;;;;;;;;;;15.70;95.90;;;15.90;83.04;100234.44;4988925;28;20036;-86
2021/08/04 03:38:52;;;;;;;;;;;15.70;96.00;;;15.90;82.96;100233.63;4989686;28;19934;-87
2021/08/04 03:41:21;;;;;;;;;;;15.70;96.00;;;15.90;83.29;100236.38;4989595;28;20031;-86
2021/08/04 03:43:48;;;;;;;;;;;15.60;96.00;;;15.86;83.20;100238.72;4988181;28;20573;-87
2021/08/04 03:46:15;;;;;;;;;;;15.70;96.10;;;15.86;83.39;100240.59;4988948;28;20449;-87
2021/08/04 03:48:42;;;;;;;;;;;15.70;96.20;;;15.86;83.25;100240.59;4989651;28;20416;-86
2021/08/04 03:51:09;;;;;;;;;;;15.70;96.20;;;15.83;83.41;100233.66;4989247;28;20497;-87
2021/08/04 03:53:36;;;;;;;;;;;15.70;96.20;;;15.81;83.12;100246.78;4989719;28;19925;-87
2021/08/04 03:56:03;;;;;;;;;;;15.60;95.80;;;15.80;83.35;100234.97;4987488;28;20020;-87
2021/08/04 03:58:32;;;;;;;;;;;15.60;95.90;;;15.80;83.11;100245.09;4989315;28;19976;-87
2021/08/04 04:00:59;;;;;;;;;;;15.60;95.90;;;15.78;83.04;100242.59;4989637;28;20339;-87
2021/08/04 04:03:26;;;;;;;;;;;15.60;95.80;;;15.75;83.25;100240.28;4989567;28;19964;-86
2021/08/04 04:05:53;;;;;;;;;;;15.60;95.90;;;15.72;83.36;100242.59;4988829;28;20012;-87
2021/08/04 04:08:20;;;;;;;;;;;15.60;96.00;;;15.74;83.42;100246.00;4987885;28;19961;-87
2021/08/04 04:10:47;;;;;;;;;;;15.50;96.10;;;15.71;83.44;100247.25;4989355;28;20025;-87
2021/08/04 04:13:14;;;;;;;;;;;15.60;96.10;;;15.72;83.59;100243.44;4989403;28;19929;-87
2021/08/04 04:15:43;;;;;;;;;;;15.60;96.20;;;15.71;83.76;100240.94;4989231;28;19932;-86
2021/08/04 04:18:10;;;;;;;;;;;15.60;96.30;;;15.70;83.75;100244.75;4988575;28;20463;-88
2021/08/04 04:20:37;;;;;;;;;;;15.60;96.40;;;15.69;84.05;100245.78;4989359;28;20015;-87
2021/08/04 04:23:04;;;;;;;;;;;15.60;96.50;;;15.68;84.14;100247.72;4992185;28;20012;-87
2021/08/04 04:25:31;;;;;;;;;;;15.60;96.50;;;15.68;84.08;100257.84;4992837;28;19929;-87
2021/08/04 04:27:58;;;;;;;;;;;15.60;96.60;;;15.67;84.34;100256.16;4992382;28;19926;-87
2021/08/04 04:30:25;;;;;;;;;;;15.60;96.60;;;15.66;84.47;100251.75;4992948;28;19925;-86
2021/08/04 04:32:53;;;;;;;;;;;15.60;96.70;;;15.68;84.56;100255.09;4993015;28;20008;-87
2021/08/04 04:35:20;;;;;;;;;;;15.70;96.70;;;15.68;84.42;100263.34;4992681;28;20390;-87
2021/08/04 04:37:47;;;;;;;;;;;15.70;96.50;;;15.68;84.70;100271.56;4991721;28;19932;-87
2021/08/04 04:40:14;;;;;;;;;;;15.70;96.40;;;15.65;85.02;100270.13;4992461;28;19995;-87
2021/08/04 04:42:42;;;;;;;;;;;15.80;96.50;;;15.67;85.43;100269.88;4974884;28;20012;-87
2021/08/04 04:45:10;;;;;;;;;;;15.90;96.70;;;15.70;85.29;100266.69;4992466;28;20001;-87
2021/08/04 04:47:37;;;;;;;;;;;15.80;96.70;;;15.71;85.59;100273.88;4991660;28;19952;-88
2021/08/04 04:50:06;;;;;;;;;;;15.90;96.90;;;15.73;85.73;100269.00;4992387;28;19953;-87
2021/08/04 04:52:39;;;;;;;;;;;15.90;97.20;;;15.75;85.86;100280.63;4992323;28;19926;-87
2021/08/04 04:55:07;;;;;;;;;;;15.90;97.10;;;15.72;85.82;100276.38;4992334;28;20024;-87
2021/08/04 04:57:34;;;;;;;;;;;15.90;96.80;;;15.74;85.89;100284.41;4991569;28;20390;-87
2021/08/04 05:00:01;;;;;;;;;;;16.00;96.70;;;15.75;86.04;100283.34;4992353;28;20450;-87
2021/08/04 05:02:28;;;;;;;;;;;16.00;96.60;;;15.73;86.42;100282.72;4992210;28;20402;-88
2021/08/04 05:04:57;;;;;;;;;;;16.00;96.70;;;15.73;86.30;100288.19;4992239;28;19953;-88
2021/08/04 05:07:25;;;;;;;;;;;16.00;96.50;;;15.74;86.41;100278.91;4991445;28;20020;-86
2021/08/04 05:09:52;;;;;;;;;;;16.00;96.50;;;15.79;86.85;100287.34;4992193;28;20413;-87
2021/08/04 05:12:19;;;;;;;;;;;16.10;97.00;;;15.79;87.00;100285.41;4974348;28;20638;-87
2021/08/04 05:14:47;;;;;;;;;;;16.10;97.20;;;15.79;87.69;100282.66;4991820;28;19925;-87
2021/08/04 05:17:14;;;;;;;;;;;16.10;97.40;;;15.82;87.77;100292.34;4973439;28;19926;-88
2021/08/04 05:19:41;;;;;;;;;;;16.20;97.40;;;15.82;87.96;100284.97;4991864;28;20016;-87
2021/08/04 05:22:08;;;;;;;;;;;16.20;97.50;;;15.84;88.31;100287.50;4991820;28;19953;-87
2021/08/04 05:24:37;;;;;;;;;;;16.20;97.60;;;15.86;88.39;100292.75;4974247;28;20389;-87
2021/08/04 05:27:04;;;;;;;;;;;16.30;97.50;;;15.88;88.29;100293.34;4991110;28;20024;-87
2021/08/04 05:29:31;;;;;;;;;;;16.40;97.50;;;15.90;88.34;100289.34;4991630;28;20456;-87
2021/08/04 05:31:58;;;;;;;;;;;16.40;97.10;;;15.92;88.50;100295.44;4974074;28;19956;-87
2021/08/04 05:34:25;;;;;;;;;;;16.50;97.00;;;15.93;88.56;100296.28;4990672;28;19961;-87
2021/08/04 05:36:52;;;;;;;;;;;16.60;96.70;;;15.95;88.50;100294.97;4990899;28;20372;-87
2021/08/04 05:39:20;;;;;;;;;;;16.60;96.40;;;15.98;88.63;100290.97;4991655;28;20387;-88
2021/08/04 05:41:48;;;;;;;;;;;16.70;96.00;;;16.01;88.65;100298.72;4973936;28;19948;-87
2021/08/04 05:44:15;;;;;;;;;;;16.90;95.80;;;16.02;88.62;100298.50;4991326;28;19933;-87
2021/08/04 05:46:42;;;;;;;;;;;17.00;95.00;;;16.06;89.01;100295.31;4990599;28;20424;-86
2021/08/04 05:49:09;;;;;;;;;;;17.20;94.70;;;16.09;89.21;100298.44;4990351;28;19957;-87
2021/08/04 05:51:36;;;;;;;;;;;17.30;94.50;;;16.12;88.84;100292.50;4988985;28;19980;-88
2021/08/04 05:54:03;;;;;;;;;;;17.40;93.50;;;16.14;88.82;100290.34;4991216;28;20024;-87
2021/08/04 05:56:30;;;;;;;;;;;17.40;93.30;;;16.20;88.63;100299.59;4990415;28;19930;-86
2021/08/04 05:58:59;;;;;;;;;;;17.50;93.00;;;16.21;88.63;100293.88;4991000;28;19949;-87
2021/08/04 06:01:26;;;;;;;;;;;17.50;93.30;;;16.27;88.30;100300.38;4991148;28;20008;-88
2021/08/04 06:03:53;;;;;;;;;;;17.50;93.10;;;16.29;88.25;100297.41;4991062;28;20024;-88
2021/08/04 06:06:20;;;;;;;;;;;17.50;93.20;;;16.31;88.50;100295.25;4972867;28;19925;-87
2021/08/04 06:08:47;;;;;;;;;;;17.50;93.50;;;16.33;88.56;100298.63;4991190;28;20016;-87
2021/08/04 06:11:14;;;;;;;;;;;17.50;93.70;;;16.35;88.77;100300.06;4990925;28;20023;-87
2021/08/04 06:13:41;;;;;;;;;;;17.50;94.20;;;16.37;89.26;100300.69;4990842;28;20003;-87
2021/08/04 06:16:10;;;;;;;;;;;17.50;94.30;;;16.38;89.41;100294.13;4990251;28;20428;-87
2021/08/04 06:18:37;;;;;;;;;;;17.50;94.40;;;16.41;89.28;100312.91;4990710;28;19921;-87
2021/08/04 06:21:04;;;;;;;;;;;17.50;94.50;;;16.43;90.36;100309.94;4990577;28;19926;-88
2021/08/04 06:23:31;;;;;;;;;;;17.60;95.00;;;16.44;89.79;100306.09;4973124;28;20024;-87
2021/08/04 06:25:58;;;;;;;;;;;17.60;94.30;;;16.46;89.56;100308.63;4972352;28;20024;-88
2021/08/04 06:28:25;;;;;;;;;;;17.60;93.90;;;16.49;89.89;100305.44;4973002;28;20020;-87
2021/08/04 06:30:52;;;;;;;;;;;17.70;94.70;;;16.51;90.04;100311.53;4990654;28;19968;-88
2021/08/04 06:33:21;;;;;;;;;;;17.70;94.30;;;16.53;90.94;100312.13;4990619;28;20044;-87
2021/08/04 06:35:48;;;;;;;;;;;17.80;95.00;;;16.52;91.45;100308.53;4990402;28;20427;-87
2021/08/04 06:38:15;;;;;;;;;;;17.80;95.40;;;16.55;90.50;100304.50;4990365;28;20032;-88
2021/08/04 06:40:42;;;;;;;;;;;17.80;94.10;;;16.58;91.21;100309.53;4972966;28;20023;-87
2021/08/04 06:43:09;;;;;;;;;;;17.80;95.00;;;16.58;90.93;100299.41;4990567;28;19926;-88
2021/08/04 06:45:36;;;;;;;;;;;17.90;94.50;;;16.60;91.25;100310.13;4990045;28;19925;-88
2021/08/04 06:48:04;;;;;;;;;;;17.90;94.70;;;16.64;92.34;100311.38;4972153;28;20301;-87
2021/08/04 06:50:32;;;;;;;;;;;18.00;95.50;;;16.66;91.89;100320.22;4990185;28;19985;-88
2021/08/04 06:52:59;;;;;;;;;;;18.00;94.70;;;16.64;91.98;100316.88;4972648;28;20024;-87
2021/08/04 06:55:26;;;;;;;;;;;18.10;94.00;;;16.64;91.38;100322.38;4990022;28;19988;-86
2021/08/04 06:57:53;;;;;;;;;;;18.10;93.60;;;16.65;92.03;100317.72;4971833;28;20067;-87
2021/08/04 07:00:20;;;;;;;;;;;18.10;94.10;;;16.67;90.69;100319.16;4990133;28;19964;-87
2021/08/04 07:02:49;;;;;;;;;;;18.10;92.80;;;16.69;91.06;100321.66;4972599;28;19925;-88
2021/08/04 07:05:17;;;;;;;;;;;18.10;93.30;;;16.73;90.31;100320.97;4990072;28;19925;-88
2021/08/04 07:07:46;;;;;;;;;;;18.20;92.80;;;16.76;90.49;100323.25;4989350;28;19931;-87
2021/08/04 07:10:14;;;;;;;;;;;18.20;92.80;;;16.77;90.95;100324.09;4990200;28;20024;-88
2021/08/04 07:12:42;;;;;;;;;;;18.30;92.90;;;16.78;91.15;100315.63;4972484;28;20452;-88
2021/08/04 07:15:09;;;;;;;;;;;18.30;93.00;;;16.80;91.91;100326.41;4989941;28;20693;-89
2021/08/04 07:17:44;;;;;;;;;;;18.40;93.20;;;16.82;91.94;100318.78;4989163;28;20012;-87
2021/08/04 07:20:12;;;;;;;;;;;18.40;93.10;;;16.86;92.21;100321.91;4989784;28;19969;-88
2021/08/04 07:22:39;;;;;;;;;;;18.50;93.60;;;16.90;92.36;100325.88;4989820;28;19963;-88
2021/08/04 07:25:09;;;;;;;;;;;18.60;93.10;;;16.89;92.41;100327.78;4989780;28;19995;-88
2021/08/04 07:27:36;;;;;;;;;;;18.70;92.60;;;16.92;91.78;100331.97;4989024;28;19929;-88
2021/08/04 07:30:05;;;;;;;;;;;18.70;92.00;;;16.96;92.12;100330.44;4972262;28;19932;-86
2021/08/04 07:32:32;;;;;;;;;;;18.80;92.40;;;17.00;92.27;100326.16;4972008;28;20461;-87
2021/08/04 07:35:00;;;;;;;;;;;18.80;92.20;;;17.01;90.39;100322.34;4971990;28;19968;-88
2021/08/04 07:37:28;;;;;;;;;;;18.90;90.00;;;17.04;89.06;100330.16;4971489;28;19926;-88
2021/08/04 07:39:56;;;;;;;;;;;18.90;89.80;;;17.05;87.77;100325.47;4989732;28;19972;-87
2021/08/04 07:42:25;;;;;;;;;;;18.90;88.70;;;17.05;87.51;100329.06;4989797;28;19926;-87
2021/08/04 07:44:53;;;;;;;;;;;18.90;88.40;;;17.09;87.98;100326.69;4989791;28;20028;-87
2021/08/04 07:47:20;;;;;;;;;;;19.00;88.70;;;17.13;89.24;100323.22;4989031;28;19926;-87
2021/08/04 07:49:47;;;;;;;;;;;19.10;89.40;;;17.15;88.28;100325.75;4989729;28;20402;-87
2021/08/04 07:52:14;;;;;;;;;;;19.20;88.90;;;17.19;88.38;100329.72;4989556;28;19972;-87
2021/08/04 07:54:41;;;;;;;;;;;19.20;88.40;;;17.23;88.00;100327.34;4971894;28;19926;-87
2021/08/04 07:57:09;;;;;;;;;;;19.30;87.90;;;17.20;87.53;100323.16;4987094;28;19957;-87
2021/08/04 07:59:37;;;;;;;;;;;19.40;87.70;;;17.22;87.82;100325.66;4993305;28;19953;-87
2021/08/04 08:02:05;;;;;;;;;;;19.50;87.20;;;17.26;87.53;100327.72;4993188;28;20020;-87
2021/08/04 08:04:32;;;;;;;;;;;19.60;86.70;;;17.32;86.95;100318.50;4993351;28;19937;-88
2021/08/04 08:06:59;;;;;;;;;;;19.70;85.90;;;17.34;87.31;100321.03;4992618;28;19926;-87
2021/08/04 08:09:26;;;;;;;;;;;19.80;85.70;;;17.38;87.21;100322.25;4993238;28;19979;-87
2021/08/04 08:11:55;;;;;;;;;;;19.90;85.20;;;17.42;86.76;100328.13;4993216;28;19953;-88
2021/08/04 08:14:22;;;;;;;;;;;20.00;85.00;;;17.45;85.42;100317.50;4993416;28;20040;-88
2021/08/04 08:16:50;;;;;;;;;;;20.10;83.10;;;17.47;84.35;100318.09;4974956;28;20024;-88
2021/08/04 08:19:18;;;;;;;;;;;20.10;83.90;;;17.51;84.20;100318.47;4993159;28;20387;-88
2021/08/04 08:21:45;;;;;;;;;;;20.20;83.20;;;17.55;84.51;100312.28;4975526;28;19925;-88
2021/08/04 08:24:13;;;;;;;;;;;20.20;82.50;;;17.59;84.38;100313.47;4992992;28;20036;-87
2021/08/04 08:26:40;;;;;;;;;;;20.30;83.30;;;17.64;84.35;100314.66;4991970;28;19925;-87
2021/08/04 08:29:07;;;;;;;;;;;20.30;82.70;;;17.67;83.39;100311.44;4975283;28;20620;-87
2021/08/04 08:31:36;;;;;;;;;;;20.30;81.40;;;17.70;83.38;100302.72;4975139;28;19929;-88
2021/08/04 08:34:05;;;;;;;;;;;20.40;82.00;;;17.75;83.35;100308.34;4976600;28;19929;-84
2021/08/04 08:36:35;;;;;;;;;;;20.40;81.40;;;17.77;84.35;100297.94;4976079;28;20409;-91
2021/08/04 08:39:05;;;;;;;;;;;20.50;82.10;;;17.83;84.69;100304.41;4977623;28;19929;-93
2021/08/04 08:41:35;;;;;;;;;;;20.50;82.20;;;17.91;84.74;100293.91;4976125;28;19968;-90
2021/08/04 08:44:02;;;;;;;;;;;20.70;81.70;;;18.06;86.24;100298.94;4976217;28;19948;-90
2021/08/04 08:46:31;;;;;;;;;;;20.90;82.40;;;18.09;85.15;100297.63;4974869;28;19926;-91
2021/08/04 08:48:59;;;;;;;;;;;20.90;81.70;;;18.11;83.18;100295.47;4975490;28;19922;-91
2021/08/04 08:51:28;;;;;;;;;;;20.80;80.60;;;18.13;82.64;100285.88;4975552;28;19925;-90
2021/08/04 08:53:56;;;;;;;;;;;20.70;80.00;;;18.19;82.00;100286.00;4975684;28;19925;-90
2021/08/04 08:56:24;;;;;;;;;;;20.70;80.00;;;18.24;80.43;100286.97;4974814;28;19929;-90
2021/08/04 08:58:53;;;;;;;;;;;20.70;79.00;;;18.29;80.82;100288.97;4974650;28;20371;-87
2021/08/04 09:01:33;;;;;;;;;;;20.70;80.00;;;18.30;78.72;100286.00;4975533;28;20554;-89
2021/08/04 09:04:03;;;;;;;;;;;20.70;79.00;;;18.37;79.22;100280.34;4974538;28;19976;-88
2021/08/04 09:06:49;;;;;;;;;;;20.70;78.50;;;18.36;78.45;100284.19;4973660;28;19947;-88
2021/08/04 09:09:19;;;;;;;;;;;20.70;78.10;;;18.46;77.97;100291.84;4974389;28;19962;-88
2021/08/04 09:11:48;;;;;;;;;;;20.80;76.70;;;18.41;76.80;100286.22;4974507;28;19980;-87
2021/08/04 09:14:15;;;;;;;;;;;20.70;76.50;;;18.45;78.36;100291.00;4974233;28;19925;-87
2021/08/04 09:16:44;;;;;;;;;;;20.70;77.60;;;18.47;76.41;100288.00;4991201;28;20394;-87
2021/08/04 09:19:21;;;;;;;;;;;20.80;76.00;;;18.46;74.97;100289.09;4991955;28;19980;-87
2021/08/04 09:22:08;;;;;;;;;;;20.70;75.00;;;18.51;74.36;100286.44;4974443;28;20391;-88
2021/08/04 09:25:00;;;;;;;;;;;20.70;75.60;;;18.58;72.55;100283.53;4974294;28;20461;-88
2021/08/04 09:27:48;;;;;;;;;;;20.80;74.90;;;18.60;71.91;100289.63;4991132;28;19977;-87
2021/08/04 09:30:18;;;;;;;;;;;20.80;73.60;;;18.55;70.28;100282.94;4991575;28;19926;-87
2021/08/04 09:32:46;;;;;;;;;;;20.80;71.80;;;18.59;72.47;100282.47;4991656;28;19926;-87
2021/08/04 09:35:16;;;;;;;;;;;20.80;73.90;;;18.64;75.04;100275.16;4973939;28;20048;-88
2021/08/04 09:37:46;;;;;;;;;;;20.90;76.30;;;18.68;74.58;100281.00;4990754;28;19959;-88
2021/08/04 09:40:16;;;;;;;;;;;20.90;76.10;;;18.63;73.83;100286.41;4991366;28;20037;-88
2021/08/04 09:42:45;;;;;;;;;;;20.90;73.00;;;18.56;72.63;100283.78;4973947;28;19926;-88
2021/08/04 09:45:13;;;;;;;;;;;20.80;70.80;;;18.56;69.04;100281.03;4973737;28;20378;-88
2021/08/04 09:47:57;;;;;;;;;;;20.80;70.20;;;18.68;69.52;100276.31;4973020;28;19984;-87
2021/08/04 09:50:24;;;;;;;;;;;20.90;71.20;;;18.82;72.79;100276.91;4973898;28;20377;-87
2021/08/04 09:52:54;;;;;;;;;;;21.10;73.90;;;18.81;69.32;100274.38;4973861;28;19929;-88
2021/08/04 09:55:22;;;;;;;;;;;21.20;71.10;;;18.84;69.98;100273.91;4973226;28;20020;-88
2021/08/04 09:57:51;;;;;;;;;;;21.20;71.10;;;18.93;72.33;100261.41;4973137;28;20445;-88
2021/08/04 10:00:19;;;;;;;;;;;21.30;73.30;;;18.94;73.75;100266.69;4973676;28;19949;-88
2021/08/04 10:02:47;;;;;;;;;;;21.20;74.30;;;18.89;72.34;100271.25;4973522;28;20418;-88
2021/08/04 10:05:22;;;;;;;;;;;21.20;72.20;;;18.90;70.10;100270.16;4991030;28;19934;-87
2021/08/04 10:08:05;;;;;;;;;;;21.30;72.00;;;18.92;70.65;100265.25;4972895;28;19960;-88
2021/08/04 10:10:34;;;;;;;;;;;21.40;70.70;;;19.01;68.84;100271.22;4973282;28;19925;-87
2021/08/04 10:13:02;;;;;;;;;;;21.50;70.80;;;19.06;70.05;100263.88;4973281;28;19944;-87
2021/08/04 10:15:32;;;;;;;;;;;21.50;69.00;;;19.02;67.39;100265.44;4990691;28;19969;-87
2021/08/04 10:18:00;;;;;;;;;;;21.60;68.80;;;19.13;68.55;100270.09;4990193;28;19932;-87
2021/08/04 10:20:27;;;;;;;;;;;21.60;69.30;;;19.10;66.94;100262.28;4972694;28;20024;-87
2021/08/04 10:22:55;;;;;;;;;;;21.60;69.10;;;19.19;70.50;100254.47;4973225;28;19929;-88
2021/08/04 10:25:24;;;;;;;;;;;21.70;70.90;;;19.25;70.83;100258.16;4973047;28;19926;-87
2021/08/04 10:27:51;;;;;;;;;;;21.80;71.00;;;19.27;70.50;100251.28;4972555;28;19997;-88
2021/08/04 10:30:18;;;;;;;;;;;21.90;69.30;;;19.32;70.12;100259.66;4990740;28;20036;-87
2021/08/04 10:32:45;;;;;;;;;;;22.00;69.30;;;19.39;69.51;100261.41;4973162;28;19969;-87
2021/08/04 10:35:12;;;;;;;;;;;22.10;69.90;;;19.33;68.94;100261.31;4972873;28;20016;-88
2021/08/04 10:37:42;;;;;;;;;;;22.00;68.30;;;19.32;68.89;100261.56;4972158;28;20346;-88
2021/08/04 10:40:10;;;;;;;;;;;22.00;68.90;;;19.28;66.38;100255.69;4990302;28;19925;-88
2021/08/04 10:42:40;;;;;;;;;;;21.90;66.90;;;19.24;66.60;100249.00;4972885;28;20029;-88
2021/08/04 10:45:29;;;;;;;;;;;21.90;67.30;;;19.30;67.67;100249.94;4972778;28;20040;-88
2021/08/04 10:47:59;;;;;;;;;;;21.80;68.00;;;19.30;66.56;100252.69;4972100;28;19922;-88
2021/08/04 10:50:26;;;;;;;;;;;21.80;67.70;;;19.37;66.40;100253.38;4972543;28;19976;-87
2021/08/04 10:53:05;;;;;;;;;;;21.80;67.50;;;19.34;65.44;100249.22;4972709;28;19968;-88
2021/08/04 10:55:53;;;;;;;;;;;21.90;67.20;;;19.40;66.50;100249.28;4972584;28;19976;-87
2021/08/04 10:58:22;;;;;;;;;;;22.00;66.70;;;19.50;69.33;100243.94;4972633;28;19926;-88
2021/08/04 11:00:49;;;;;;;;;;;22.10;69.30;;;19.52;67.88;100253.63;4972555;28;20286;-88
2021/08/04 11:03:56;;;;;;;;;;;22.20;68.20;;;19.57;67.00;100254.81;4972845;28;19965;-87
2021/08/04 11:06:23;;;;;;;;;;;22.30;67.70;;;19.51;64.66;100246.47;4971756;28;19925;-87
2021/08/04 11:09:23;;;;;;;;;;;22.20;63.40;;;19.49;65.26;100239.50;4972523;28;19921;-88
2021/08/04 11:11:52;;;;;;;;;;;22.20;64.90;;;19.51;65.61;100240.09;4989996;28;20366;-88
2021/08/04 11:14:45;;;;;;;;;;;22.20;65.80;;;19.59;65.80;100244.34;4989815;28;20027;-88
2021/08/04 11:17:14;;;;;;;;;;;22.30;66.00;;;19.62;65.45;100230.06;4989241;28;19969;-87
2021/08/04 11:20:14;;;;;;;;;;;22.40;65.70;;;19.68;66.10;100231.81;4989776;28;20374;-87
2021/08/04 11:22:47;;;;;;;;;;;22.40;65.90;;;19.70;65.63;100235.16;4972294;28;19926;-88
2021/08/04 11:25:28;;;;;;;;;;;22.50;66.10;;;19.68;65.14;100234.56;4972291;28;20394;-87